sensor_id;sensor_type;location;lat;lon;timestamp;pressure;altitude;pressure_sealevel;temperature;humidity
1652;BME280;823;49.028;8.454;2022-09-03T00:09:48;99924.59;;;23.52;40.26
1652;BME280;823;49.028;8.454;2022-09-03T00:15:18;99924.16;;;23.57;39.23
1652;BME280;823;49.028;8.454;2022-09-03T00:25:51;99936.03;;;23.43;38.80
1652;BME280;823;49.028;8.454;2022-09-03T00:31:05;99928.69;;;23.37;40.37
1652;BME280;823;49.028;8.454;2022-09-03T00:36:09;99933.44;;;23.33;40.68
1652;BME280;823;49.028;8.454;2022-09-03T00:41:26;99938.13;;;23.39;42.86
1652;BME280;823;49.028;8.454;2022-09-03T00:52:07;99947.66;;;23.12;40.19
1652;BME280;823;49.028;8.454;2022-09-03T01:19:20;99934.19;;;23.16;41.72
1652;BME280;823;49.028;8.454;2022-09-03T01:24:13;99944.19;;;23.12;44.02
1652;BME280;823;49.028;8.454;2022-09-03T01:34:57;99941.38;;;23.04;44.18
1652;BME280;823;49.028;8.454;2022-09-03T01:45:17;99954.06;;;22.90;43.37
1652;BME280;823;49.028;8.454;2022-09-03T02:02:03;99966.56;;;22.69;45.47
1652;BME280;823;49.028;8.454;2022-09-03T02:07:06;99961.88;;;22.63;45.22
1652;BME280;823;49.028;8.454;2022-09-03T02:12:14;99963.78;;;22.60;46.42
1652;BME280;823;49.028;8.454;2022-09-03T02:17:15;99961.44;;;22.57;46.42
1652;BME280;823;49.028;8.454;2022-09-03T02:22:16;99961.97;;;22.51;47.18
1652;BME280;823;49.028;8.454;2022-09-03T02:27:17;99961.00;;;22.52;47.01
1652;BME280;823;49.028;8.454;2022-09-03T02:32:18;99961.00;;;22.52;47.42
1652;BME280;823;49.028;8.454;2022-09-03T02:37:18;99958.25;;;22.44;46.75
1652;BME280;823;49.028;8.454;2022-09-03T02:42:19;99949.50;;;22.43;46.84
1652;BME280;823;49.028;8.454;2022-09-03T02:47:19;99946.44;;;22.38;47.46
1652;BME280;823;49.028;8.454;2022-09-03T02:52:20;99941.03;;;22.40;46.55
1652;BME280;823;49.028;8.454;2022-09-03T02:57:20;99948.25;;;22.38;47.79
1652;BME280;823;49.028;8.454;2022-09-03T03:02:20;99943.69;;;22.40;47.69
1652;BME280;823;49.028;8.454;2022-09-03T03:07:21;99946.31;;;22.40;46.71
1652;BME280;823;49.028;8.454;2022-09-03T03:12:21;99949.50;;;22.34;46.71
1652;BME280;823;49.028;8.454;2022-09-03T03:17:21;99949.59;;;22.22;49.06
1652;BME280;823;49.028;8.454;2022-09-03T03:22:22;99958.19;;;22.24;49.12
1652;BME280;823;49.028;8.454;2022-09-03T03:27:22;99953.72;;;22.15;49.11
1652;BME280;823;49.028;8.454;2022-09-03T03:32:23;99957.38;;;22.14;49.07
1652;BME280;823;49.028;8.454;2022-09-03T03:37:23;99956.25;;;22.17;48.79
1652;BME280;823;49.028;8.454;2022-09-03T03:42:23;99964.28;;;22.15;49.04
1652;BME280;823;49.028;8.454;2022-09-03T03:47:24;99976.63;;;22.15;49.23
1652;BME280;823;49.028;8.454;2022-09-03T03:52:25;99978.69;;;22.11;50.30
1652;BME280;823;49.028;8.454;2022-09-03T03:57:29;99977.69;;;22.02;50.85
1652;BME280;823;49.028;8.454;2022-09-03T04:02:29;99992.22;;;21.97;51.44
1652;BME280;823;49.028;8.454;2022-09-03T04:07:30;99997.34;;;21.88;52.75
1652;BME280;823;49.028;8.454;2022-09-03T04:12:30;99995.25;;;21.82;51.55
1652;BME280;823;49.028;8.454;2022-09-03T04:17:30;99985.69;;;21.81;50.09
1652;BME280;823;49.028;8.454;2022-09-03T04:22:31;99978.75;;;21.80;50.71
1652;BME280;823;49.028;8.454;2022-09-03T04:27:31;99991.03;;;21.70;51.09
1652;BME280;823;49.028;8.454;2022-09-03T04:32:31;99991.28;;;21.67;51.25
1652;BME280;823;49.028;8.454;2022-09-03T04:37:50;99992.97;;;21.68;50.66
1652;BME280;823;49.028;8.454;2022-09-03T04:42:55;99996.44;;;21.68;50.29
1652;BME280;823;49.028;8.454;2022-09-03T04:48:03;100002.66;;;21.67;50.05
1652;BME280;823;49.028;8.454;2022-09-03T04:53:04;100012.34;;;21.67;51.09
1652;BME280;823;49.028;8.454;2022-09-03T04:58:05;100013.19;;;21.67;51.93
1652;BME280;823;49.028;8.454;2022-09-03T05:03:07;100008.63;;;21.69;49.79
1652;BME280;823;49.028;8.454;2022-09-03T05:08:07;100015.06;;;21.55;48.14
1652;BME280;823;49.028;8.454;2022-09-03T05:13:07;100016.03;;;21.54;48.83
1652;BME280;823;49.028;8.454;2022-09-03T05:18:08;100011.22;;;21.59;49.00
1652;BME280;823;49.028;8.454;2022-09-03T05:23:08;100008.56;;;21.59;48.84
1652;BME280;823;49.028;8.454;2022-09-03T05:28:08;100015.50;;;21.60;49.99
1652;BME280;823;49.028;8.454;2022-09-03T05:33:09;100024.41;;;21.69;49.59
1652;BME280;823;49.028;8.454;2022-09-03T05:38:09;100027.91;;;21.70;48.12
1652;BME280;823;49.028;8.454;2022-09-03T05:43:09;100035.25;;;21.76;47.74
1652;BME280;823;49.028;8.454;2022-09-03T05:48:10;100035.25;;;21.76;47.70
1652;BME280;823;49.028;8.454;2022-09-03T05:53:10;100036.78;;;21.79;48.73
1652;BME280;823;49.028;8.454;2022-09-03T05:58:10;100032.66;;;21.86;50.08
1652;BME280;823;49.028;8.454;2022-09-03T06:03:10;100044.44;;;21.91;49.71
1652;BME280;823;49.028;8.454;2022-09-03T06:08:11;100057.78;;;22.00;50.57
1652;BME280;823;49.028;8.454;2022-09-03T06:13:11;100047.13;;;22.01;49.48
1652;BME280;823;49.028;8.454;2022-09-03T06:18:12;100049.09;;;22.09;49.46
1652;BME280;823;49.028;8.454;2022-09-03T06:23:12;100043.56;;;22.12;49.20
1652;BME280;823;49.028;8.454;2022-09-03T06:28:12;100042.75;;;22.21;49.35
1652;BME280;823;49.028;8.454;2022-09-03T06:33:12;100037.66;;;22.30;50.30
1652;BME280;823;49.028;8.454;2022-09-03T06:38:13;100047.22;;;22.31;49.78
1652;BME280;823;49.028;8.454;2022-09-03T06:43:14;100051.94;;;22.27;50.77
1652;BME280;823;49.028;8.454;2022-09-03T06:48:14;100054.63;;;22.06;52.76
1652;BME280;823;49.028;8.454;2022-09-03T06:53:14;100066.19;;;21.84;55.31
1652;BME280;823;49.028;8.454;2022-09-03T06:58:15;100062.09;;;21.70;56.94
1652;BME280;823;49.028;8.454;2022-09-03T07:03:15;100068.19;;;21.70;56.83
1652;BME280;823;49.028;8.454;2022-09-03T07:08:16;100068.06;;;21.72;57.31
1652;BME280;823;49.028;8.454;2022-09-03T07:13:17;100067.25;;;21.71;57.24
1652;BME280;823;49.028;8.454;2022-09-03T07:18:18;100076.78;;;21.51;56.73
1652;BME280;823;49.028;8.454;2022-09-03T07:23:18;100069.84;;;21.29;58.47
1652;BME280;823;49.028;8.454;2022-09-03T07:28:18;100084.03;;;21.38;58.66
1652;BME280;823;49.028;8.454;2022-09-03T07:33:19;100091.28;;;21.24;59.01
1652;BME280;823;49.028;8.454;2022-09-03T07:38:19;100096.25;;;21.06;59.40
1652;BME280;823;49.028;8.454;2022-09-03T07:43:22;100108.97;;;20.90;59.82
1652;BME280;823;49.028;8.454;2022-09-03T07:48:23;100109.38;;;20.74;59.94
1652;BME280;823;49.028;8.454;2022-09-03T07:53:23;100109.03;;;20.67;61.07
1652;BME280;823;49.028;8.454;2022-09-03T07:58:24;100116.09;;;20.44;62.22
1652;BME280;823;49.028;8.454;2022-09-03T08:03:24;100133.88;;;20.29;63.32
1652;BME280;823;49.028;8.454;2022-09-03T08:08:24;100135.91;;;20.03;64.37
1652;BME280;823;49.028;8.454;2022-09-03T08:13:25;100145.44;;;19.93;65.94
1652;BME280;823;49.028;8.454;2022-09-03T08:18:25;100131.84;;;19.87;65.96
1652;BME280;823;49.028;8.454;2022-09-03T08:23:26;100121.56;;;19.84;67.25
1652;BME280;823;49.028;8.454;2022-09-03T08:28:27;100105.78;;;19.73;68.15
1652;BME280;823;49.028;8.454;2022-09-03T08:33:27;100102.53;;;19.58;69.12
1652;BME280;823;49.028;8.454;2022-09-03T08:38:36;100107.94;;;19.79;69.04
1652;BME280;823;49.028;8.454;2022-09-03T08:48:47;100108.47;;;19.96;69.41
1652;BME280;823;49.028;8.454;2022-09-03T08:53:50;100100.59;;;19.96;69.34
1652;BME280;823;49.028;8.454;2022-09-03T08:58:54;100103.81;;;19.99;69.22
1652;BME280;823;49.028;8.454;2022-09-03T09:09:40;100099.13;;;20.48;69.07
1652;BME280;823;49.028;8.454;2022-09-03T09:20:47;100104.13;;;20.74;68.06
1652;BME280;823;49.028;8.454;2022-09-03T09:25:49;100109.09;;;20.88;67.93
1652;BME280;823;49.028;8.454;2022-09-03T09:30:53;100102.34;;;21.07;67.69
1652;BME280;823;49.028;8.454;2022-09-03T09:35:54;100108.19;;;21.11;67.81
1652;BME280;823;49.028;8.454;2022-09-03T09:40:55;100104.22;;;21.16;67.98
1652;BME280;823;49.028;8.454;2022-09-03T09:46:11;100116.16;;;21.20;68.40
1652;BME280;823;49.028;8.454;2022-09-03T09:51:23;100108.69;;;21.37;69.03
1652;BME280;823;49.028;8.454;2022-09-03T09:56:25;100098.47;;;21.43;68.44
1652;BME280;823;49.028;8.454;2022-09-03T10:01:25;100096.81;;;21.64;69.08
1652;BME280;823;49.028;8.454;2022-09-03T10:06:30;100098.34;;;21.87;68.72
1652;BME280;823;49.028;8.454;2022-09-03T10:17:21;100098.06;;;22.21;67.78
1652;BME280;823;49.028;8.454;2022-09-03T10:22:23;100091.16;;;22.30;67.25
1652;BME280;823;49.028;8.454;2022-09-03T10:27:25;100092.63;;;22.44;66.98
1652;BME280;823;49.028;8.454;2022-09-03T10:33:03;100080.19;;;22.66;66.50
1652;BME280;823;49.028;8.454;2022-09-03T10:38:15;100078.13;;;22.89;66.22
1652;BME280;823;49.028;8.454;2022-09-03T10:43:48;100092.00;;;23.01;66.38
1652;BME280;823;49.028;8.454;2022-09-03T10:54:39;100106.59;;;23.24;66.22
1652;BME280;823;49.028;8.454;2022-09-03T11:05:08;100107.19;;;23.18;65.96
1652;BME280;823;49.028;8.454;2022-09-03T11:10:27;100102.44;;;23.22;65.62
1652;BME280;823;49.028;8.454;2022-09-03T11:15:38;100103.94;;;23.05;65.92
1652;BME280;823;49.028;8.454;2022-09-03T11:20:40;100100.63;;;22.93;66.25
1652;BME280;823;49.028;8.454;2022-09-03T11:25:49;100102.63;;;22.50;67.08
1652;BME280;823;49.028;8.454;2022-09-03T11:36:22;100095.34;;;22.83;67.12
1652;BME280;823;49.028;8.454;2022-09-03T11:41:33;100094.78;;;22.99;67.12
1652;BME280;823;49.028;8.454;2022-09-03T11:46:34;100084.69;;;23.14;67.00
1652;BME280;823;49.028;8.454;2022-09-03T11:51:36;100086.34;;;23.35;66.24
1652;BME280;823;49.028;8.454;2022-09-03T11:56:37;100078.38;;;23.54;65.29
1652;BME280;823;49.028;8.454;2022-09-03T12:17:32;100084.59;;;24.10;61.18
1652;BME280;823;49.028;8.454;2022-09-03T12:22:35;100088.25;;;24.09;61.01
1652;BME280;823;49.028;8.454;2022-09-03T12:27:39;100079.56;;;24.17;60.52
1652;BME280;823;49.028;8.454;2022-09-03T12:32:41;100090.63;;;24.30;60.01
1652;BME280;823;49.028;8.454;2022-09-03T12:37:44;100078.88;;;24.43;59.93
1652;BME280;823;49.028;8.454;2022-09-03T12:42:45;100073.53;;;24.53;59.38
1652;BME280;823;49.028;8.454;2022-09-03T12:47:45;100087.34;;;24.74;58.63
1652;BME280;823;49.028;8.454;2022-09-03T12:53:00;100082.56;;;24.96;56.73
1652;BME280;823;49.028;8.454;2022-09-03T12:58:09;100085.06;;;24.97;56.06
1652;BME280;823;49.028;8.454;2022-09-03T13:03:18;100088.84;;;24.95;55.74
1652;BME280;823;49.028;8.454;2022-09-03T13:08:25;100092.25;;;24.87;55.31
1652;BME280;823;49.028;8.454;2022-09-03T13:13:31;100081.69;;;24.87;55.85
1652;BME280;823;49.028;8.454;2022-09-03T13:18:56;100086.09;;;24.69;55.83
1652;BME280;823;49.028;8.454;2022-09-03T13:34:57;100088.97;;;25.11;55.65
1652;BME280;823;49.028;8.454;2022-09-03T13:40:24;100089.75;;;25.66;52.48
1652;BME280;823;49.028;8.454;2022-09-03T13:45:34;100070.53;;;25.98;49.45
1652;BME280;823;49.028;8.454;2022-09-03T13:50:52;100064.25;;;26.34;46.59
1652;BME280;823;49.028;8.454;2022-09-03T13:56:05;100078.22;;;26.61;45.05
1652;BME280;823;49.028;8.454;2022-09-03T14:07:05;100068.94;;;26.57;42.67
1652;BME280;823;49.028;8.454;2022-09-03T14:13:09;100066.00;;;26.09;43.48
1652;BME280;823;49.028;8.454;2022-09-03T14:18:12;100068.53;;;25.92;44.23
1652;BME280;823;49.028;8.454;2022-09-03T14:23:46;100067.75;;;25.74;44.28
1652;BME280;823;49.028;8.454;2022-09-03T14:28:57;100065.59;;;25.69;44.49
1652;BME280;823;49.028;8.454;2022-09-03T14:34:32;100060.91;;;25.89;45.39
1652;BME280;823;49.028;8.454;2022-09-03T14:39:52;100082.81;;;25.99;44.02
1652;BME280;823;49.028;8.454;2022-09-03T14:44:56;100083.59;;;26.26;41.95
1652;BME280;823;49.028;8.454;2022-09-03T15:00:56;100082.16;;;26.40;43.67
1652;BME280;823;49.028;8.454;2022-09-03T15:11:16;100096.34;;;25.88;43.74
1652;BME280;823;49.028;8.454;2022-09-03T15:16:30;100103.22;;;25.73;44.34
1652;BME280;823;49.028;8.454;2022-09-03T15:27:25;100117.63;;;25.52;45.01
1652;BME280;823;49.028;8.454;2022-09-03T15:37:44;100119.09;;;25.28;45.68
1652;BME280;823;49.028;8.454;2022-09-03T15:42:49;100129.13;;;25.25;46.03
1652;BME280;823;49.028;8.454;2022-09-03T15:48:05;100119.00;;;25.20;45.81
1652;BME280;823;49.028;8.454;2022-09-03T15:58:37;100118.25;;;25.10;46.51
1652;BME280;823;49.028;8.454;2022-09-03T16:03:55;100121.13;;;24.98;46.72
1652;BME280;823;49.028;8.454;2022-09-03T16:09:02;100113.19;;;24.98;46.75
1652;BME280;823;49.028;8.454;2022-09-03T16:14:09;100107.31;;;25.05;46.95
1652;BME280;823;49.028;8.454;2022-09-03T16:19:22;100111.91;;;25.03;47.30
1652;BME280;823;49.028;8.454;2022-09-03T16:24:46;100105.78;;;25.02;47.01
1652;BME280;823;49.028;8.454;2022-09-03T16:30:07;100103.34;;;25.09;46.99
1652;BME280;823;49.028;8.454;2022-09-03T16:35:31;100108.72;;;25.17;46.92
1652;BME280;823;49.028;8.454;2022-09-03T16:40:49;100101.69;;;25.26;46.96
1652;BME280;823;49.028;8.454;2022-09-03T17:07:56;100102.16;;;25.03;46.88
1652;BME280;823;49.028;8.454;2022-09-03T17:18:49;100093.94;;;24.88;47.12
1652;BME280;823;49.028;8.454;2022-09-03T17:24:06;100101.41;;;24.93;47.30
1652;BME280;823;49.028;8.454;2022-09-03T17:29:39;100111.81;;;24.94;47.95
1652;BME280;823;49.028;8.454;2022-09-03T17:50:16;100132.66;;;24.79;49.78
1652;BME280;823;49.028;8.454;2022-09-03T17:55:36;100142.75;;;24.76;49.40
1652;BME280;823;49.028;8.454;2022-09-03T18:00:53;100138.19;;;24.68;49.78
1652;BME280;823;49.028;8.454;2022-09-03T18:06:01;100159.66;;;24.55;51.49
1652;BME280;823;49.028;8.454;2022-09-03T18:11:12;100159.25;;;24.50;50.75
1652;BME280;823;49.028;8.454;2022-09-03T18:16:31;100174.59;;;24.37;50.97
1652;BME280;823;49.028;8.454;2022-09-03T18:21:36;100172.59;;;24.21;50.58
1652;BME280;823;49.028;8.454;2022-09-03T18:26:58;100168.47;;;24.08;51.29
1652;BME280;823;49.028;8.454;2022-09-03T18:32:18;100170.03;;;24.01;51.64
1652;BME280;823;49.028;8.454;2022-09-03T18:37:37;100170.31;;;23.88;52.48
1652;BME280;823;49.028;8.454;2022-09-03T18:43:20;100177.25;;;23.79;52.95
1652;BME280;823;49.028;8.454;2022-09-03T18:49:10;100192.69;;;23.64;54.01
1652;BME280;823;49.028;8.454;2022-09-03T19:05:37;100205.34;;;23.22;55.30
1652;BME280;823;49.028;8.454;2022-09-03T19:11:08;100208.53;;;23.16;55.13
1652;BME280;823;49.028;8.454;2022-09-03T19:22:06;100208.84;;;22.91;56.98
1652;BME280;823;49.028;8.454;2022-09-03T19:33:16;100220.09;;;22.84;56.53
1652;BME280;823;49.028;8.454;2022-09-03T19:39:01;100226.75;;;22.78;56.91
1652;BME280;823;49.028;8.454;2022-09-03T19:45:11;100247.28;;;22.84;56.70
1652;BME280;823;49.028;8.454;2022-09-03T19:50:40;100245.72;;;22.72;56.98
1652;BME280;823;49.028;8.454;2022-09-03T19:56:07;100250.03;;;22.73;56.47
1652;BME280;823;49.028;8.454;2022-09-03T20:01:33;100256.94;;;22.64;57.60
1652;BME280;823;49.028;8.454;2022-09-03T20:06:52;100243.91;;;22.63;56.99
1652;BME280;823;49.028;8.454;2022-09-03T20:12:12;100247.03;;;22.56;57.35
1652;BME280;823;49.028;8.454;2022-09-03T20:22:40;100251.44;;;22.46;57.59
1652;BME280;823;49.028;8.454;2022-09-03T20:55:10;100263.66;;;22.05;59.24
1652;BME280;823;49.028;8.454;2022-09-03T21:00:14;100274.44;;;22.02;59.36
1652;BME280;823;49.028;8.454;2022-09-03T21:10:41;100283.91;;;21.72;60.48
1652;BME280;823;49.028;8.454;2022-09-03T21:16:11;100288.53;;;21.80;60.24
1652;BME280;823;49.028;8.454;2022-09-03T21:26:49;100294.81;;;21.67;60.63
1652;BME280;823;49.028;8.454;2022-09-03T21:36:58;100286.09;;;21.55;60.64
1652;BME280;823;49.028;8.454;2022-09-03T21:42:11;100287.06;;;21.54;60.63
1652;BME280;823;49.028;8.454;2022-09-03T21:47:14;100297.59;;;21.43;60.78
1652;BME280;823;49.028;8.454;2022-09-03T21:52:20;100305.97;;;21.37;60.95
1652;BME280;823;49.028;8.454;2022-09-03T21:57:34;100309.69;;;21.34;61.50
1652;BME280;823;49.028;8.454;2022-09-03T22:02:39;100310.06;;;21.30;61.27
1652;BME280;823;49.028;8.454;2022-09-03T22:08:17;100322.13;;;21.43;60.71
1652;BME280;823;49.028;8.454;2022-09-03T22:13:31;100313.63;;;21.40;60.93
1652;BME280;823;49.028;8.454;2022-09-03T22:18:34;100313.63;;;21.29;60.98
1652;BME280;823;49.028;8.454;2022-09-03T22:23:44;100310.50;;;21.35;60.50
1652;BME280;823;49.028;8.454;2022-09-03T22:28:55;100321.53;;;21.29;60.92
1652;BME280;823;49.028;8.454;2022-09-03T22:39:33;100324.53;;;21.24;60.63
1652;BME280;823;49.028;8.454;2022-09-03T22:50:11;100330.03;;;21.21;61.05
1652;BME280;823;49.028;8.454;2022-09-03T22:55:19;100333.25;;;21.13;61.06
1652;BME280;823;49.028;8.454;2022-09-03T23:00:23;100333.50;;;21.10;61.41
1652;BME280;823;49.028;8.454;2022-09-03T23:05:43;100332.91;;;21.18;60.77
1652;BME280;823;49.028;8.454;2022-09-03T23:11:06;100343.16;;;21.21;60.76
1652;BME280;823;49.028;8.454;2022-09-03T23:21:17;100352.88;;;21.20;60.69
1652;BME280;823;49.028;8.454;2022-09-03T23:26:40;100353.00;;;21.19;60.78
1652;BME280;823;49.028;8.454;2022-09-03T23:31:41;100361.47;;;21.11;60.60
1652;BME280;823;49.028;8.454;2022-09-03T23:36:51;100358.59;;;21.03;60.58
1652;BME280;823;49.028;8.454;2022-09-03T23:53:22;100367.66;;;20.87;60.87
